• Join FlightAware (Why Join?)
  • Login
  • US Flag 
05:38PM EST


 

Airport Tracker/Info


-or-


 

Live Flight TrackerFlight Track Log ✈ SWA1688 ✈ 08-Aug-2014 ✈ KPHX - KLAS

Flight Track Log - Related Links

Times and Time Zones

All times are in EDT time to prevent confusion due to time zone crossing. See the SWA1688 flight status page for this flight to view local times or setup timezone preferences in your user account.

Time Position Orientation Groundspeed Altitude Reporting Facility
EDT Latitude Longitude Course Direction KTS MPH feet Rate Location/Type
09:17AM 33.4333 -111.9833 90° East 172 198 1,900  Level Phoenix TRACON
09:18AM 33.4333 -111.9333 90° East 217 250 3,100 1,620 Climbing Phoenix TRACON
09:19AM 33.4364 -111.8692 87° East 243 280 4,600 1,920 Climbing Albuquerque Center
09:20AM 33.5017 -111.8578 North 283 326 6,600 2,280 Climbing Albuquerque Center
09:21AM 33.5647 -111.9139 323° Northwest 283 326 9,300 2,220 Climbing Albuquerque Center
09:22AM 33.6333 -111.9756 323° Northwest 306 352 11,200 2,160 Climbing Albuquerque Center
09:23AM 33.7114 -112.0458 323° Northwest 343 395 13,700 2,640 Climbing Albuquerque Center
09:24AM 33.7931 -112.1197 323° Northwest 359 413 16,600 2,940 Climbing Albuquerque Center
09:25AM 33.8750 -112.1936 323° Northwest 362 417 19,700 2,700 Climbing Albuquerque Center
09:26AM 33.9597 -112.2717 323° Northwest 378 435 22,100 2,400 Climbing Albuquerque Center
09:27AM 34.0475 -112.3497 324° Northwest 388 447 24,700 2,160 Climbing Albuquerque Center
09:28AM 34.1247 -112.4458 314° West 398 458 26,500 1,560 Climbing Albuquerque Center
09:29AM 34.2036 -112.5475 313° West 409 471 28,000 720 Climbing Albuquerque Center
09:30AM 34.3014 -112.6725 313° West 422 486 28,000  Level Albuquerque Center
09:31AM 34.3814 -112.7756 313° West 422 486 28,000  Level Albuquerque Center
09:33AM 34.5358 -112.9769 313° West 414 476 28,000  Level Albuquerque Center
09:34AM 34.6139 -113.0781 313° West 414 476 28,000  Level Albuquerque Center
09:35AM 34.6919 -113.1811 313° West 414 476 28,000  Level Albuquerque Center
09:36AM 34.7719 -113.2858 313° West 416 479 28,000  Level Albuquerque Center
09:37AM 34.8500 -113.3892 313° West 416 479 28,000  Level Albuquerque Center
09:38AM 34.9294 -113.4944 313° West 416 479 28,000  Level Albuquerque Center
09:39AM 35.0089 -113.5997 313° West 417 480 28,000  Level Albuquerque Center
09:40AM 35.1047 -113.7256 313° West 418 481 28,000 -660 Level Los Angeles Center
09:41AM 35.1819 -113.8306 312° West 418 481 26,600 -1,860 Descending Los Angeles Center
09:42AM 35.2542 -113.9275 312° West 392 451 24,300 -1,320 Descending Los Angeles Center
09:43AM 35.3411 -114.0094 322° Northwest 385 443 24,000 -480 Descending Los Angeles Center
09:44AM 35.4264 -114.0889 323° Northwest 385 443 23,400 -1,980 Descending Los Angeles Center
09:45AM 35.5078 -114.1644 323° Northwest 378 435 20,000 -3,480 Descending Los Angeles Center
09:46AM 35.5594 -114.2153 321° Northwest 379 436 17,900 -4,140 Descending Los Angeles Center
09:46AM 35.6150 -114.2642 324° Northwest 390 449 15,800 -3,420 Descending Los Angeles Center
09:47AM 35.6694 -114.3186 321° Northwest 403 464 14,100 -2,520 Descending Los Angeles Center
09:47AM 35.7017 -114.3447 327° Northwest 390 449 13,200 -1,740 Descending Los Angeles Center
09:48AM 35.7514 -114.3942 321° Northwest 370 426 12,400 -1,200 Descending Los Angeles Center
09:48AM 35.7769 -114.4214 319° Northwest 365 420 12,000 -1,020 Descending Los Angeles Center
09:49AM 35.8119 -114.4800 306° West 318 366 11,400 -1,020 Descending Los Angeles Center
09:49AM 35.8347 -114.5083 315° West 333 383 11,000 -1,020 Descending Los Angeles Center
09:50AM 35.8722 -114.5661 309° West 329 379 10,400 -900 Descending Los Angeles Center
09:50AM 35.8950 -114.5961 313° West 333 383 10,100 -420 Descending Los Angeles Center
09:51AM 35.9381 -114.6581 311° West 337 388 10,000 -120 Descending Los Angeles Center
09:51AM 35.9553 -114.6811 313° West 333 383 10,000 -660 Level Los Angeles Center
09:52AM 35.9878 -114.7267 311° West 319 367 9,400 -900 Descending Los Angeles Center
09:52AM 36.0131 -114.7622 311° West 320 368 9,100 -420 Descending Los Angeles Center
09:53AM 36.0431 -114.8092 308° West 278 320 9,000 -240 Descending Los Angeles Center
09:54AM 36.0600 -114.8300 315° West 269 310 8,900 -1,020 Descending Los Angeles Center
09:54AM 36.0703 -114.8747 286° West 207 238 8,000 -1,800 Descending Los Angeles Center
09:55AM 36.0742 -114.9083 278° West 210 242 7,100 -1,920 Descending Los Angeles Center
09:55AM 36.0772 -114.9364 278° West 176 203 6,100 -2,280 Descending Los Angeles Center
09:56AM 36.0772 -114.9717 270° West 177 204 4,800 -1,980 Descending Los Angeles Center
09:56AM 36.0758 -114.9981 266° West 170 196 4,100 -1,260 Descending Los Angeles Center
09:57AM 36.0767 -115.0244 272° West 155 178 3,500 -840 Descending Los Angeles Center
09:57AM 36.0753 -115.0461 265° West 134 154 3,300 -600 Descending Los Angeles Center
09:58AM 36.0764 -115.0750 273° West 142 163 2,900 -720 Descending Los Angeles Center
09:58AM 36.0772 -115.0933 273° West 140 161 2,600 -660 Descending Los Angeles Center
09:59AM 36.0761 -115.1214 267° West 140 161 2,200 -600 Descending Los Angeles Center
10:01AM 36.0667 -115.1500 270° West  Level FlightAware Approximate